This is the latest recevied weather packets stored in our database for station/object SQ7IQO. If no packets are shown the sender has not sent any weather packets the latest 10 day(s).
| Time | Temp. | Humidity | Pressure | Rain* | Wind** | Luminosity | Snow |
|---|---|---|---|---|---|---|---|
| 1788094303 | 28.33° C | 43% | 1010 hPa | 0 mm | 0.89 m/s, ° | - | - |
| 1788094243 | 27.78° C | 42% | 1015.4 hPa | 0 mm | 0.45 m/s, ° | - | - |
| 1788094183 | 28.33° C | 42% | 1015.4 hPa | 0 mm | 0.89 m/s, ° | - | - |
| 1788094123 | 28.33° C | 42% | 1015.4 hPa | 0 mm | 0.89 m/s, ° | - | - |
| 1788094063 | 27.78° C | 42% | 1015.4 hPa | 0 mm | 0.45 m/s, ° | - | - |
| 1788094003 | 28.33° C | 41% | 1015.4 hPa | 0 mm | 0.89 m/s, ° | - | - |
| 1788093943 | 28.33° C | 41% | 1015.4 hPa | 0 mm | 0.45 m/s, ° | - | - |
| 1788093883 | 28.89° C | 42% | 1015.4 hPa | 0 mm | 0.89 m/s, ° | - | - |
| 1788093823 | 28.89° C | 42% | 1015.4 hPa | 0 mm | 0 m/s | - | - |
| 1788093763 | 28.89° C | 41% | 1403.3 hPa | 0 mm | 0.45 m/s, ° | - | - |
| 1788093703 | 28.89° C | 41% | 1015.5 hPa | 0 mm | 0.45 m/s, ° | - | - |
| 1788093645 | 29.44° C | 39% | 1015.4 hPa | 0 mm | 0.45 m/s, ° | - | - |
| 1788093583 | 29.44° C | 41% | 1015.4 hPa | 0 mm | 0 m/s | - | - |
| 1788093523 | 28.89° C | 41% | 1015.4 hPa | 0 mm | 0 m/s | - | - |
| 1788093463 | 28.89° C | 43% | 1015.4 hPa | 0 mm | 0 m/s | - | - |
| 1788093403 | 28.89° C | 42% | 1015.4 hPa | 0 mm | 0 m/s | - | - |
| 1788093343 | 28.89° C | 42% | 1015.5 hPa | 0 mm | 0 m/s | - | - |
| 1788093283 | 28.89° C | 41% | 1015.5 hPa | 0 mm | 0 m/s | - | - |
| 1788093223 | 28.89° C | 42% | 1015 hPa | 0 mm | 0.45 m/s, ° | - | - |
| 1788093163 | 28.89° C | 43% | 1015.5 hPa | 0 mm | 0 m/s | - | - |
| 1788093103 | 28.89° C | 40% | 1015.5 hPa | 0 mm | 0 m/s | - | - |
| 1788093043 | 28.89° C | 41% | 1015.5 hPa | 0 mm | 0.45 m/s, ° | - | - |
| 1788092983 | 28.89° C | 42% | 1015.5 hPa | 0 mm | 0.45 m/s, ° | - | - |
| 1788092923 | 29.44° C | 42% | 1279.1 hPa | 0 mm | 0.45 m/s, ° | - | - |
| 1788092863 | 28.89° C | 41% | 1015.5 hPa | 0 mm | 0 m/s | - | - |
* Rain latest hour (hover to see other rain measurements)
** Current wind speed in m/s (hover to see current wind gust speed)